Svitzer Setubal — CSYQ7 — position and weather

sailwx.info

Track history (hours):
 
Tides and Currents Weather Stations Pressure Air Temp Water Temp Dewpoint Dewpoint Depression Visibility Wind Speed Wind Dir Waves Ship Positions

Svitzer Setubal

Last reported at 2017-Sep-21 09:00 UTC. Time now 2017-Sep-21 09:03 UTC.
Position N 37°08' W 008°32'.

Length 33 m; draft 4.4 m.

Type: Tug. MMSI: 263602553.

Date/timePositionNaut miles runAvg speedWind from/ knotsBaromVisibWave heightAir tempDewpointWater temp
2017-Sep-21 09:00N 37°08' W 008°32'0 0.0
2017-Sep-21 08:30N 37°08' W 008°32'0 0.0
2017-Sep-21 08:00N 37°08' W 008°32'0 0.0
2017-Sep-21 07:30N 37°08' W 008°32'0 0.0
2017-Sep-21 07:00N 37°08' W 008°32'0 0.0
2017-Sep-21 06:30N 37°08' W 008°32'0 0.0
2017-Sep-21 06:00N 37°08' W 008°32'0 0.0
2017-Sep-21 05:30N 37°08' W 008°32'0 0.0
2017-Sep-21 05:00N 37°08' W 008°32'0 0.0
2017-Sep-21 04:30N 37°08' W 008°32'0 0.0
2017-Sep-21 04:00N 37°08' W 008°32'0 0.0
2017-Sep-21 03:30N 37°08' W 008°32'0 0.0
2017-Sep-21 03:00N 37°08' W 008°32'0 0.0
2017-Sep-21 02:30N 37°08' W 008°32'0 0.0
2017-Sep-21 02:00N 37°08' W 008°32'0 0.0
2017-Sep-21 01:30N 37°08' W 008°32'0 0.0
2017-Sep-21 01:00N 37°08' W 008°32'0 0.0
2017-Sep-21 00:30N 37°08' W 008°32'0 0.0
2017-Sep-21 00:00N 37°08' W 008°32'0 0.0
2017-Sep-20 23:30N 37°08' W 008°32'0 0.0
2017-Sep-20 23:00N 37°08' W 008°32'0 0.0
2017-Sep-20 22:30N 37°08' W 008°32'0 0.0
2017-Sep-20 22:00N 37°08' W 008°32'0 0.0
2017-Sep-20 21:30N 37°08' W 008°32'0 0.0
2017-Sep-20 21:00N 37°08' W 008°32'0 0.0
2017-Sep-20 20:30N 37°08' W 008°32'0 0.0
2017-Sep-20 20:00N 37°08' W 008°32'0 0.0
2017-Sep-20 19:30N 37°08' W 008°32'0 0.0
2017-Sep-20 19:00N 37°08' W 008°32'0 0.0
2017-Sep-20 18:30N 37°08' W 008°32'0 0.0
2017-Sep-20 18:00N 37°08' W 008°32'0 0.0
2017-Sep-20 17:30N 37°08' W 008°32'0 0.0
2017-Sep-20 17:00N 37°08' W 008°32'0 0.0
2017-Sep-20 16:30N 37°08' W 008°32'1 1.8
2017-Sep-20 16:00N 37°07' W 008°32'1 1.9
2017-Sep-20 15:30N 37°08' W 008°32'0 0.2
2017-Sep-20 15:00N 37°08' W 008°32'0 0.0
2017-Sep-20 14:00N 37°08' W 008°32'0 0.0
2017-Sep-20 13:30N 37°08' W 008°32'0 0.0
2017-Sep-20 13:00N 37°08' W 008°32'0 0.0
2017-Sep-20 12:30N 37°08' W 008°32'0 0.0
2017-Sep-20 12:00N 37°08' W 008°32'0 0.0
2017-Sep-20 11:30N 37°08' W 008°32'0 0.0
2017-Sep-20 11:00N 37°08' W 008°32'0 0.0
2017-Sep-20 10:30N 37°08' W 008°32'0 0.0
2017-Sep-20 10:00N 37°08' W 008°32'0 0.0
2017-Sep-20 09:30N 37°08' W 008°32'0 0.0
2017-Sep-20 09:00N 37°08' W 008°32'0 0.0
2017-Sep-20 08:30N 37°08' W 008°32'0 0.0
2017-Sep-20 08:00N 37°08' W 008°32'0 0.2
2017-Sep-20 07:30N 37°08' W 008°32'2 3.9
2017-Sep-20 07:00N 37°06' W 008°32'1 1.1
2017-Sep-20 06:30N 37°06' W 008°32'1 2.6
2017-Sep-20 06:00N 37°08' W 008°32'0 0.0
2017-Sep-20 05:30N 37°08' W 008°32'0 0.0
2017-Sep-20 05:00N 37°08' W 008°32'0 0.0
2017-Sep-20 04:30N 37°08' W 008°32'0 0.0
2017-Sep-20 04:00N 37°08' W 008°32'0 0.0
2017-Sep-20 03:30N 37°08' W 008°32'0 0.0
2017-Sep-20 03:00N 37°08' W 008°32'0 0.0
2017-Sep-20 02:30N 37°08' W 008°32'0 0.0
2017-Sep-20 02:00N 37°08' W 008°32'0 0.0
2017-Sep-20 01:30N 37°08' W 008°32'3 7.0
2017-Sep-20 01:00N 37°04' W 008°33'510.7
2017-Sep-20 00:30N 37°01' W 008°38'510.8
2017-Sep-20 00:00N 36°58' W 008°44'510.9
2017-Sep-19 23:30N 36°55' W 008°49'810.5
2017-Sep-19 22:47N 36°50' W 008°56'310.4
2017-Sep-19 22:30N 36°50' W 008°60'25 9.6
2017-Sep-19 19:53N 37°13' W 009°11'511.4
2017-Sep-19 19:28N 37°18' W 009°10'511.2
2017-Sep-19 18:59N 37°23' W 009°09'510.9
2017-Sep-19 18:30N 37°29' W 009°08'611.1
2017-Sep-19 18:00N 37°34' W 009°08'611.1
2017-Sep-19 17:30N 37°40' W 009°07'611.2
2017-Sep-19 17:00N 37°45' W 009°06'611.2
2017-Sep-19 16:30N 37°51' W 009°05'611.2
2017-Sep-19 16:00N 37°56' W 009°04'611.1
2017-Sep-19 15:31N 38°02' W 009°03'611.1
2017-Sep-19 15:00N 38°07' W 009°02'611.1
2017-Sep-19 14:30N 38°13' W 009°01'611.0
2017-Sep-19 14:00N 38°18' W 009°00'510.8
2017-Sep-19 13:30N 38°24' W 008°59'5 9.7
2017-Sep-19 13:00N 38°28' W 008°57'4 8.2
2017-Sep-19 12:30N 38°31' W 008°53'3 5.2
2017-Sep-19 12:00N 38°30' W 008°50'0 0.0
2017-Sep-19 11:28N 38°30' W 008°50'0 0.0
2017-Sep-19 10:59N 38°30' W 008°50'0 0.0
2017-Sep-19 10:30N 38°30' W 008°50'0 0.0
2017-Sep-19 10:00N 38°30' W 008°50'0 0.0
2017-Sep-19 09:30N 38°30' W 008°50'0 0.0
2017-Sep-19 08:53N 38°30' W 008°50'0 0.0
2017-Sep-19 08:26N 38°30' W 008°50'0 0.0
2017-Sep-19 08:00N 38°30' W 008°50'0 0.0
2017-Sep-19 07:24N 38°30' W 008°50'0 0.0
2017-Sep-19 06:59N 38°30' W 008°50'0 0.0
2017-Sep-19 06:25N 38°30' W 008°50'0 0.0
2017-Sep-19 05:57N 38°30' W 008°50'0 0.0
2017-Sep-19 05:29N 38°30' W 008°50'0 0.0
2017-Sep-19 04:49N 38°30' W 008°50'0 0.0
2017-Sep-19 04:28N 38°30' W 008°50'0 0.0
2017-Sep-19 04:00N 38°30' W 008°50'0 0.0
2017-Sep-19 03:25N 38°30' W 008°50'0 0.0
2017-Sep-19 02:57N 38°30' W 008°50'0 0.0
2017-Sep-19 02:30N 38°30' W 008°50'0 0.0
2017-Sep-19 02:00N 38°30' W 008°50'0 0.0
2017-Sep-19 01:20N 38°30' W 008°50'0 0.0
2017-Sep-19 00:58N 38°30' W 008°50'0 0.0
2017-Sep-19 00:30N 38°30' W 008°50'0 0.0
2017-Sep-18 23:54N 38°30' W 008°50'0 0.0
2017-Sep-18 23:30N 38°30' W 008°50'0 0.0
2017-Sep-18 23:00N 38°30' W 008°50'0 0.0
2017-Sep-18 22:26N 38°30' W 008°50'0 0.0
2017-Sep-18 22:00N 38°30' W 008°50'0 0.0
2017-Sep-18 21:30N 38°30' W 008°50'0 0.0
2017-Sep-18 21:00N 38°30' W 008°50'0 0.0
2017-Sep-18 20:29N 38°30' W 008°50'0 0.0
2017-Sep-18 20:00N 38°30' W 008°50'0 0.0
2017-Sep-18 19:30N 38°30' W 008°50'0 0.0
2017-Sep-18 19:00N 38°30' W 008°50'0 0.0
2017-Sep-18 18:30N 38°30' W 008°50'0 0.0
2017-Sep-18 18:00N 38°30' W 008°50'0 0.0
2017-Sep-18 17:30N 38°30' W 008°50'0 0.0
2017-Sep-18 17:00N 38°30' W 008°50'0 0.0
2017-Sep-18 16:30N 38°30' W 008°50'0 0.0
2017-Sep-18 16:00N 38°30' W 008°50'0 0.0
2017-Sep-18 15:30N 38°30' W 008°50'0 0.0
2017-Sep-18 15:00N 38°30' W 008°50'0 0.0
2017-Sep-18 14:30N 38°30' W 008°50'0 0.0
2017-Sep-18 14:00N 38°30' W 008°50'0 0.0
2017-Sep-18 13:30N 38°30' W 008°50'0 0.0
2017-Sep-18 12:59N 38°30' W 008°50'0 0.0
2017-Sep-18 12:21N 38°30' W 008°50'0 0.0
2017-Sep-18 11:57N 38°30' W 008°50'0 0.0
2017-Sep-18 11:28N 38°30' W 008°50'0 0.0
2017-Sep-18 11:00N 38°30' W 008°50'0 0.0
2017-Sep-18 10:26N 38°30' W 008°50'0 0.0
2017-Sep-18 09:59N 38°30' W 008°50'0 0.0
2017-Sep-18 08:28N 38°30' W 008°50'0 0.0
2017-Sep-18 08:00N 38°30' W 008°50'0 0.0
2017-Sep-18 07:24N 38°30' W 008°50'0 0.0
2017-Sep-18 07:00N 38°30' W 008°50'0 0.8
2017-Sep-18 06:29N 38°30' W 008°51'0 0.3
2017-Sep-18 06:00N 38°30' W 008°51'3 5.7
2017-Sep-18 05:27N 38°30' W 008°55'1 1.2
2017-Sep-18 04:58N 38°31' W 008°54'2 4.9
2017-Sep-18 04:30N 38°30' W 008°51'1 2.1
2017-Sep-18 03:56N 38°30' W 008°50'0 0.0
2017-Sep-18 03:27N 38°30' W 008°50'0 0.0
2017-Sep-18 02:59N 38°30' W 008°50'0 0.0
2017-Sep-18 02:27N 38°30' W 008°50'0 0.0
2017-Sep-18 02:00N 38°30' W 008°50'0 0.0
2017-Sep-18 01:30N 38°30' W 008°50'0 0.0
2017-Sep-18 01:00N 38°30' W 008°50'0 0.0
2017-Sep-18 00:30N 38°30' W 008°50'0 0.0
2017-Sep-18 00:00N 38°30' W 008°50'0 0.0
2017-Sep-17 23:29N 38°30' W 008°50'0 0.0
2017-Sep-17 23:00N 38°30' W 008°50'0 0.0
2017-Sep-17 22:30N 38°30' W 008°50'0 0.0
2017-Sep-17 22:00N 38°30' W 008°50'0 0.0
2017-Sep-17 21:30N 38°30' W 008°50'0 0.0
2017-Sep-17 21:00N 38°30' W 008°50'0 0.0
2017-Sep-17 20:30N 38°30' W 008°50'0 0.0
2017-Sep-17 20:00N 38°30' W 008°50'0 0.0
2017-Sep-17 19:30N 38°30' W 008°50'2 3.3
2017-Sep-17 19:01N 38°31' W 008°52'2 3.2
2017-Sep-17 18:30N 38°30' W 008°50'0 0.0
2017-Sep-17 18:00N 38°30' W 008°50'0 0.0
2017-Sep-17 17:30N 38°30' W 008°50'0 0.0
2017-Sep-17 17:00N 38°30' W 008°50'0 0.0
2017-Sep-17 16:30N 38°30' W 008°50'0 0.0
2017-Sep-17 16:00N 38°30' W 008°50'0 0.0
2017-Sep-17 15:30N 38°30' W 008°50'0 0.0
2017-Sep-17 15:00N 38°30' W 008°50'0 0.0
2017-Sep-17 14:30N 38°30' W 008°50'0 0.0
2017-Sep-17 14:00N 38°30' W 008°50'0 0.0
2017-Sep-17 13:30N 38°30' W 008°50'0 0.0
2017-Sep-17 13:00N 38°30' W 008°50'0 0.0
2017-Sep-17 12:30N 38°30' W 008°50'0 0.0
2017-Sep-17 12:00N 38°30' W 008°50'0 0.0
2017-Sep-17 11:30N 38°30' W 008°50'0 0.0
2017-Sep-17 11:00N 38°30' W 008°50'0 0.0
2017-Sep-17 10:30N 38°30' W 008°50'0 0.0
2017-Sep-17 09:59N 38°30' W 008°50'0 0.0
2017-Sep-17 09:30N 38°30' W 008°50'0 0.0
2017-Sep-17 08:49N 38°30' W 008°50'0 0.0
2017-Sep-17 08:30N 38°30' W 008°50'0 0.0
2017-Sep-17 07:46N 38°30' W 008°50'0 0.0
2017-Sep-17 07:28N 38°30' W 008°50'0 0.0
2017-Sep-17 07:00N 38°30' W 008°50'0 0.0
2017-Sep-17 06:28N 38°30' W 008°50'1 2.1
2017-Sep-17 05:55N 38°30' W 008°51'0 0.9
2017-Sep-17 05:30N 38°31' W 008°52'1 2.6
2017-Sep-17 05:00N 38°31' W 008°53'1 2.6
2017-Sep-17 04:30N 38°30' W 008°55'2 3.4
2017-Sep-17 03:59N 38°31' W 008°53'2 4.7
2017-Sep-17 03:30N 38°30' W 008°50'0 0.0
2017-Sep-17 02:50N 38°30' W 008°50'0 0.0
2017-Sep-17 02:27N 38°30' W 008°50'0 0.0
2017-Sep-17 01:59N 38°30' W 008°50'0 0.0
2017-Sep-17 01:14N 38°30' W 008°50'0 0.0
2017-Sep-17 00:58N 38°30' W 008°50'0 0.0
2017-Sep-17 00:30N 38°30' W 008°50'0 0.0
2017-Sep-16 23:59N 38°30' W 008°50'0 0.0
2017-Sep-16 23:30N 38°30' W 008°50'0 0.0
2017-Sep-16 22:48N 38°30' W 008°50'0 0.0
2017-Sep-16 22:25N 38°30' W 008°50'0 0.0
2017-Sep-16 21:57N 38°30' W 008°50'0 0.0
2017-Sep-16 21:30N 38°30' W 008°50'0 0.0
2017-Sep-16 21:00N 38°30' W 008°50'0 0.0
2017-Sep-16 20:25N 38°30' W 008°50'0 0.0
2017-Sep-16 20:00N 38°30' W 008°50'0 0.0
2017-Sep-16 19:29N 38°30' W 008°50'0 0.0
2017-Sep-16 19:00N 38°30' W 008°50'0 0.0
2017-Sep-16 18:30N 38°30' W 008°50'0 0.0
2017-Sep-16 18:00N 38°30' W 008°50'0 0.0
2017-Sep-16 17:28N 38°30' W 008°50'0 0.0
2017-Sep-16 16:58N 38°30' W 008°50'0 0.0
2017-Sep-16 16:30N 38°30' W 008°50'2 3.4
2017-Sep-16 16:00N 38°31' W 008°52'1 1.6
2017-Sep-16 15:30N 38°31' W 008°53'0 0.7
2017-Sep-16 15:00N 38°31' W 008°53'1 2.8
2017-Sep-16 14:29N 38°30' W 008°55'1 3.0
2017-Sep-16 14:00N 38°31' W 008°53'3 5.4
2017-Sep-16 13:30N 38°30' W 008°50'0 0.0
2017-Sep-16 13:00N 38°30' W 008°50'0 0.0
2017-Sep-16 12:29N 38°30' W 008°50'0 0.0
2017-Sep-16 11:59N 38°30' W 008°50'0 0.0
2017-Sep-16 11:30N 38°30' W 008°50'0 0.0
2017-Sep-16 10:58N 38°30' W 008°50'0 0.0
2017-Sep-16 10:30N 38°30' W 008°50'0 0.0
2017-Sep-16 10:00N 38°30' W 008°50'0 0.0
2017-Sep-16 09:29N 38°30' W 008°50'0 0.0
2017-Sep-16 08:59N 38°30' W 008°50'0 0.0
2017-Sep-16 08:28N 38°30' W 008°50'0 0.0
2017-Sep-16 07:57N 38°30' W 008°50'0 0.0
2017-Sep-16 07:29N 38°30' W 008°50'0 0.0
2017-Sep-16 07:00N 38°30' W 008°50'0 0.0
2017-Sep-16 06:30N 38°30' W 008°50'0 0.0
2017-Sep-16 06:00N 38°30' W 008°50'0 0.0
2017-Sep-16 05:30N 38°30' W 008°50'0 0.0
2017-Sep-16 04:58N 38°30' W 008°50'0 0.0
2017-Sep-16 04:27N 38°30' W 008°50'0 0.0
2017-Sep-16 03:50N 38°30' W 008°50'0 0.0
2017-Sep-16 03:17N 38°30' W 008°50'0 0.0
2017-Sep-16 02:53N 38°30' W 008°50'0 0.0
2017-Sep-16 02:29N 38°30' W 008°50'0 0.0
2017-Sep-16 01:52N 38°30' W 008°50'0 0.0
2017-Sep-16 01:19N 38°30' W 008°50'0 0.0
2017-Sep-16 00:53N 38°30' W 008°50'0 0.0
2017-Sep-16 00:28N 38°30' W 008°50'0 0.0
2017-Sep-15 23:58N 38°30' W 008°50'0 0.0
2017-Sep-15 23:24N 38°30' W 008°50'0 0.0
2017-Sep-15 22:38N 38°30' W 008°50'0 0.1
2017-Sep-15 22:29N 38°30' W 008°50'0 0.0
2017-Sep-15 21:57N 38°30' W 008°50'0 0.0
2017-Sep-15 20:44N 38°30' W 008°50'0 0.0
2017-Sep-15 20:23N 38°30' W 008°50'0 0.0
2017-Sep-15 19:59N 38°30' W 008°50'0 0.0
2017-Sep-15 19:28N 38°30' W 008°50'0 0.0
2017-Sep-15 18:59N 38°30' W 008°50'0 0.0
2017-Sep-15 18:26N 38°30' W 008°50'0 0.0
2017-Sep-15 18:00N 38°30' W 008°50'0 0.0
2017-Sep-15 17:27N 38°30' W 008°50'0 0.0
2017-Sep-15 16:58N 38°30' W 008°50'0 0.0
2017-Sep-15 16:30N 38°30' W 008°50'0 0.0
2017-Sep-15 15:57N 38°30' W 008°50'0 0.0
2017-Sep-15 15:05N 38°30' W 008°50'0 0.0
2017-Sep-15 14:59N 38°30' W 008°50'0 0.0
2017-Sep-15 14:30N 38°30' W 008°50'0 0.0
2017-Sep-15 13:58N 38°30' W 008°50'0 0.0
2017-Sep-15 13:30N 38°30' W 008°50'0 0.0
2017-Sep-15 12:56N 38°30' W 008°50'0 0.0
2017-Sep-15 12:20N 38°30' W 008°50'0 0.0
2017-Sep-15 11:52N 38°30' W 008°50'0 0.0
2017-Sep-15 11:28N 38°30' W 008°50'0 0.0
2017-Sep-15 10:50N 38°30' W 008°50'1 3.1
2017-Sep-15 10:25N 38°30' W 008°52'1 3.1
2017-Sep-15 10:00N 38°31' W 008°53'1 2.7
2017-Sep-15 09:30N 38°31' W 008°55'1 2.5
2017-Sep-15 09:00N 38°31' W 008°53'2 4.9
2017-Sep-15 08:30N 38°30' W 008°50'0 0.0
2017-Sep-15 07:48N 38°30' W 008°50'0 0.0
2017-Sep-15 07:29N 38°30' W 008°50'0 0.0
2017-Sep-15 06:59N 38°30' W 008°50'0 0.0
2017-Sep-15 06:28N 38°30' W 008°50'0 0.0
2017-Sep-15 05:56N 38°30' W 008°50'0 0.0
2017-Sep-15 05:29N 38°30' W 008°50'0 0.0
2017-Sep-15 04:36N 38°30' W 008°50'0 0.0
2017-Sep-15 04:30N 38°30' W 008°50'0 0.0
2017-Sep-15 03:58N 38°30' W 008°50'0 0.0
2017-Sep-15 03:28N 38°30' W 008°50'0 0.0
2017-Sep-15 02:57N 38°30' W 008°50'0 0.0
2017-Sep-15 02:25N 38°30' W 008°50'0 0.0
2017-Sep-15 02:00N 38°30' W 008°50'0 0.0
2017-Sep-15 01:30N 38°30' W 008°50'0 0.0
2017-Sep-15 00:56N 38°30' W 008°50'0 0.0
2017-Sep-15 00:26N 38°30' W 008°50'0 0.0
2017-Sep-14 23:59N 38°30' W 008°50'0 0.0
2017-Sep-14 23:11N 38°30' W 008°50'0 0.0
2017-Sep-14 22:50N 38°30' W 008°50'0 0.0
2017-Sep-14 22:30N 38°30' W 008°50'0 0.0
2017-Sep-14 21:57N 38°30' W 008°50'0 0.0
2017-Sep-14 21:28N 38°30' W 008°50'0 0.0
2017-Sep-14 20:59N 38°30' W 008°50'0 0.0
2017-Sep-14 20:18N 38°30' W 008°50'0 0.0
2017-Sep-14 20:00N 38°30' W 008°50'0 0.0
2017-Sep-14 19:30N 38°30' W 008°50'0 0.0
2017-Sep-14 19:00N 38°30' W 008°50'0 0.0
2017-Sep-14 18:30N 38°30' W 008°50'0 0.0
2017-Sep-14 17:56N 38°30' W 008°50'0 0.0
2017-Sep-14 17:30N 38°30' W 008°50'0 0.0
2017-Sep-14 17:00N 38°30' W 008°50'0 0.0
2017-Sep-14 16:30N 38°30' W 008°50'0 0.0
2017-Sep-14 16:00N 38°30' W 008°50'0 0.0
2017-Sep-14 15:30N 38°30' W 008°50'0 0.0
2017-Sep-14 15:00N 38°30' W 008°50'0 0.0
2017-Sep-14 14:30N 38°30' W 008°50'0 0.0
2017-Sep-14 14:00N 38°30' W 008°50'0 0.0
2017-Sep-14 13:27N 38°30' W 008°50'0 0.0
2017-Sep-14 13:00N 38°30' W 008°50'0 0.0
2017-Sep-14 12:23N 38°30' W 008°50'0 0.0
2017-Sep-14 11:59N 38°30' W 008°50'0 0.0
2017-Sep-14 11:28N 38°30' W 008°50'0 0.1
2017-Sep-14 11:00N 38°30' W 008°50'0 0.2
2017-Sep-14 10:26N 38°30' W 008°50'0 0.0
2017-Sep-14 09:58N 38°30' W 008°50'0 0.0
2017-Sep-14 09:30N 38°30' W 008°50'0 0.0
2017-Sep-14 08:52N 38°30' W 008°50'0 0.2
2017-Sep-14 08:26N 38°30' W 008°50'0 0.0
2017-Sep-14 08:00N 38°30' W 008°50'0 0.0
2017-Sep-14 07:23N 38°30' W 008°50'0 0.0
2017-Sep-14 06:59N 38°30' W 008°50'0 0.0
2017-Sep-14 06:30N 38°30' W 008°50'0 0.0
2017-Sep-14 05:58N 38°30' W 008°50'0 0.0
2017-Sep-14 05:30N 38°30' W 008°50'0 0.0
2017-Sep-14 04:40N 38°30' W 008°50'0 0.0
2017-Sep-14 04:30N 38°30' W 008°50'0 0.0
2017-Sep-14 03:22N 38°30' W 008°50'0 0.0
2017-Sep-14 02:59N 38°30' W 008°50'0 0.0
2017-Sep-14 02:26N 38°30' W 008°50'0 0.0
2017-Sep-14 01:55N 38°30' W 008°50'0 0.0
2017-Sep-14 01:30N 38°30' W 008°50'0 0.0
2017-Sep-14 00:59N 38°30' W 008°50'0 0.0
2017-Sep-14 00:29N 38°30' W 008°50'0 0.0
2017-Sep-13 23:51N 38°30' W 008°50'0 0.0
2017-Sep-13 23:30N 38°30' W 008°50'0 0.0
2017-Sep-13 22:59N 38°30' W 008°50'0 0.0
2017-Sep-13 22:27N 38°30' W 008°50'0 0.0
2017-Sep-13 21:58N 38°30' W 008°50'0 0.0
2017-Sep-13 21:24N 38°30' W 008°50'0 0.0
2017-Sep-13 20:58N 38°30' W 008°50'0 0.0
2017-Sep-13 20:30N 38°30' W 008°50'0 0.0
2017-Sep-13 19:56N 38°30' W 008°50'0 0.0
2017-Sep-13 19:30N 38°30' W 008°50'0 0.0
2017-Sep-13 18:59N 38°30' W 008°50'0 0.0
2017-Sep-13 18:30N 38°30' W 008°50'0 0.0
2017-Sep-13 18:00N 38°30' W 008°50'0 0.0
2017-Sep-13 17:30N 38°30' W 008°50'0 0.0
2017-Sep-13 17:00N 38°30' W 008°50'0 0.0
2017-Sep-13 16:30N 38°30' W 008°50'0 0.0
2017-Sep-13 16:00N 38°30' W 008°50'0 0.0
2017-Sep-13 15:30N 38°30' W 008°50'0 0.0
2017-Sep-13 15:00N 38°30' W 008°50'0 0.0
2017-Sep-13 14:30N 38°30' W 008°50'0 0.0
2017-Sep-13 14:00N 38°30' W 008°50'0 0.0
2017-Sep-13 13:30N 38°30' W 008°50'0 0.0
2017-Sep-13 13:00N 38°30' W 008°50'0 0.0
2017-Sep-13 12:30N 38°30' W 008°50'0 0.0
2017-Sep-13 12:00N 38°30' W 008°50'0 0.0
2017-Sep-13 11:28N 38°30' W 008°50'0 0.0
2017-Sep-13 10:59N 38°30' W 008°50'0 0.0
2017-Sep-13 10:30N 38°30' W 008°50'0 0.0
2017-Sep-13 10:00N 38°30' W 008°50'0 0.0
2017-Sep-13 09:30N 38°30' W 008°50'0 0.0
2017-Sep-13 08:59N 38°30' W 008°50'0 0.0
2017-Sep-13 08:21N 38°30' W 008°50'0 0.0
2017-Sep-13 07:58N 38°30' W 008°50'0 0.0
2017-Sep-13 07:23N 38°30' W 008°50'0 0.0
2017-Sep-13 06:56N 38°30' W 008°50'0 0.0
2017-Sep-13 06:30N 38°30' W 008°50'0 0.0
2017-Sep-13 05:59N 38°30' W 008°50'0 0.0
2017-Sep-13 05:28N 38°30' W 008°50'0 0.0
2017-Sep-13 05:00N 38°30' W 008°50'0 0.0
2017-Sep-13 04:27N 38°30' W 008°50'0 0.0
2017-Sep-13 03:52N 38°30' W 008°50'0 0.0
2017-Sep-13 03:30N 38°30' W 008°50'0 0.0
2017-Sep-13 02:59N 38°30' W 008°50'0 0.0
2017-Sep-13 02:30N 38°30' W 008°50'0 0.0
2017-Sep-13 01:53N 38°30' W 008°50'0 0.0
2017-Sep-13 01:30N 38°30' W 008°50'0 0.0
2017-Sep-13 01:00N 38°30' W 008°50'0 0.0
2017-Sep-13 00:26N 38°30' W 008°50'0 0.0
2017-Sep-12 23:56N 38°30' W 008°50'0 0.0
2017-Sep-12 23:25N 38°30' W 008°50'0 0.0
2017-Sep-12 23:00N 38°30' W 008°50'0 0.0
2017-Sep-12 22:30N 38°30' W 008°50'0 0.0
2017-Sep-12 21:59N 38°30' W 008°50'0 0.0
2017-Sep-12 21:29N 38°30' W 008°50'0 0.0
2017-Sep-12 21:00N 38°30' W 008°50'0 0.0
2017-Sep-12 20:28N 38°30' W 008°50'0 0.0
2017-Sep-12 20:00N 38°30' W 008°50'0 0.0
2017-Sep-12 19:29N 38°30' W 008°50'0 0.0
2017-Sep-12 18:59N 38°30' W 008°50'0 0.0
2017-Sep-12 18:30N 38°30' W 008°50'0 0.0
2017-Sep-12 18:00N 38°30' W 008°50'0 0.0
2017-Sep-12 17:30N 38°30' W 008°50'0 0.0
2017-Sep-12 17:00N 38°30' W 008°50'0 0.0
2017-Sep-12 16:30N 38°30' W 008°50'0 0.0
2017-Sep-12 16:00N 38°30' W 008°50'0 0.0
2017-Sep-12 15:30N 38°30' W 008°50'0 0.0
2017-Sep-12 15:00N 38°30' W 008°50'0 0.0
2017-Sep-12 14:30N 38°30' W 008°50'0 0.0
2017-Sep-12 13:59N 38°30' W 008°50'0 0.0
2017-Sep-12 13:30N 38°30' W 008°50'0 0.0
2017-Sep-12 13:00N 38°30' W 008°50'0 0.0
2017-Sep-12 12:28N 38°30' W 008°50'0 0.0
2017-Sep-12 12:00N 38°30' W 008°50'0 0.0
2017-Sep-12 11:30N 38°30' W 008°50'0 0.0
2017-Sep-12 11:00N 38°30' W 008°50'0 0.0
2017-Sep-12 10:27N 38°30' W 008°50'0 0.0
2017-Sep-12 09:57N 38°30' W 008°50'0 0.0
2017-Sep-12 09:23N 38°30' W 008°50'0 0.0
2017-Sep-12 08:53N 38°30' W 008°50'0 0.0
2017-Sep-12 08:27N 38°30' W 008°50'0 0.0
2017-Sep-12 08:00N 38°30' W 008°50'0 0.0
2017-Sep-12 07:30N 38°30' W 008°50'0 0.0
2017-Sep-12 07:00N 38°30' W 008°50'0 0.0
2017-Sep-12 06:28N 38°30' W 008°50'0 0.0
2017-Sep-12 06:00N 38°30' W 008°50'0 0.0
2017-Sep-12 05:25N 38°30' W 008°50'0 0.0
2017-Sep-12 04:58N 38°30' W 008°50'0 0.0
2017-Sep-12 04:28N 38°30' W 008°50'0 0.0
2017-Sep-12 03:59N 38°30' W 008°50'0 0.0
2017-Sep-12 03:30N 38°30' W 008°50'0 0.0
2017-Sep-12 03:00N 38°30' W 008°50'0 0.0
2017-Sep-12 02:30N 38°30' W 008°50'0 0.0
2017-Sep-12 02:00N 38°30' W 008°50'0 0.0
2017-Sep-12 01:30N 38°30' W 008°50'0 0.0
2017-Sep-12 01:00N 38°30' W 008°50'0 0.0
2017-Sep-12 00:30N 38°30' W 008°50'0 0.0
2017-Sep-11 23:58N 38°30' W 008°50'0 0.0
2017-Sep-11 23:30N 38°30' W 008°50'0 0.0
2017-Sep-11 23:00N 38°30' W 008°50'0 0.0
2017-Sep-11 22:30N 38°30' W 008°50'0 0.0
2017-Sep-11 22:00N 38°30' W 008°50'0 0.0
2017-Sep-11 21:21N 38°30' W 008°50'0 0.0
2017-Sep-11 21:00N 38°30' W 008°50'0 0.0
2017-Sep-11 20:30N 38°30' W 008°50'0 0.0
2017-Sep-11 19:59N 38°30' W 008°50'0 0.0
2017-Sep-11 19:30N 38°30' W 008°50'0 0.0
2017-Sep-11 18:52N 38°30' W 008°50'0 0.0
2017-Sep-11 18:27N 38°30' W 008°50'0 0.0
2017-Sep-11 17:52N 38°30' W 008°50'0 0.0
2017-Sep-11 17:29N 38°30' W 008°50'0 0.0
2017-Sep-11 16:54N 38°30' W 008°50'0 0.0
2017-Sep-11 16:30N 38°30' W 008°50'0 0.0
2017-Sep-11 16:00N 38°30' W 008°50'0 0.0
2017-Sep-11 15:30N 38°30' W 008°50'0 0.0
2017-Sep-11 15:00N 38°30' W 008°50'0 0.0
2017-Sep-11 14:30N 38°30' W 008°50'0 0.0
2017-Sep-11 14:00N 38°30' W 008°50'0 0.0
2017-Sep-11 13:30N 38°30' W 008°50'0 0.0
2017-Sep-11 13:00N 38°30' W 008°50'0 0.0
2017-Sep-11 12:27N 38°30' W 008°50'0 0.0
2017-Sep-11 12:00N 38°30' W 008°50'0 0.0
2017-Sep-11 11:30N 38°30' W 008°50'0 0.0
2017-Sep-11 10:59N 38°30' W 008°50'0 0.0
2017-Sep-11 10:30N 38°30' W 008°50'0 0.0
2017-Sep-11 09:59N 38°30' W 008°50'0 0.0
2017-Sep-11 09:29N 38°30' W 008°50'  
Track history (hours):
 
Tides and Currents Weather Stations Pressure Air Temp Water Temp Dewpoint Dewpoint Depression Visibility Wind Speed Wind Dir Waves Ship Positions

Svitzer Setubal

Last reported at 2017-Sep-21 09:00 UTC. Time now 2017-Sep-21 09:03 UTC.
Position N 37°08' W 008°32'.

Length 33 m; draft 4.4 m.

Type: Tug. MMSI: 263602553.

Date/timePositionNaut miles runAvg speedWind from/ knotsBaromVisibWave heightAir tempDewpointWater temp
2017-Sep-21 09:00N 37°08' W 008°32'0 0.0
2017-Sep-21 08:30N 37°08' W 008°32'0 0.0
2017-Sep-21 08:00N 37°08' W 008°32'0 0.0
2017-Sep-21 07:30N 37°08' W 008°32'0 0.0
2017-Sep-21 07:00N 37°08' W 008°32'0 0.0
2017-Sep-21 06:30N 37°08' W 008°32'0 0.0
2017-Sep-21 06:00N 37°08' W 008°32'0 0.0
2017-Sep-21 05:30N 37°08' W 008°32'0 0.0
2017-Sep-21 05:00N 37°08' W 008°32'0 0.0
2017-Sep-21 04:30N 37°08' W 008°32'0 0.0
2017-Sep-21 04:00N 37°08' W 008°32'0 0.0
2017-Sep-21 03:30N 37°08' W 008°32'0 0.0
2017-Sep-21 03:00N 37°08' W 008°32'0 0.0
2017-Sep-21 02:30N 37°08' W 008°32'0 0.0
2017-Sep-21 02:00N 37°08' W 008°32'0 0.0
2017-Sep-21 01:30N 37°08' W 008°32'0 0.0
2017-Sep-21 01:00N 37°08' W 008°32'0 0.0
2017-Sep-21 00:30N 37°08' W 008°32'0 0.0
2017-Sep-21 00:00N 37°08' W 008°32'0 0.0
2017-Sep-20 23:30N 37°08' W 008°32'0 0.0
2017-Sep-20 23:00N 37°08' W 008°32'0 0.0
2017-Sep-20 22:30N 37°08' W 008°32'0 0.0
2017-Sep-20 22:00N 37°08' W 008°32'0 0.0
2017-Sep-20 21:30N 37°08' W 008°32'0 0.0
2017-Sep-20 21:00N 37°08' W 008°32'0 0.0
2017-Sep-20 20:30N 37°08' W 008°32'0 0.0
2017-Sep-20 20:00N 37°08' W 008°32'0 0.0
2017-Sep-20 19:30N 37°08' W 008°32'0 0.0
2017-Sep-20 19:00N 37°08' W 008°32'0 0.0
2017-Sep-20 18:30N 37°08' W 008°32'0 0.0
2017-Sep-20 18:00N 37°08' W 008°32'0 0.0
2017-Sep-20 17:30N 37°08' W 008°32'0 0.0
2017-Sep-20 17:00N 37°08' W 008°32'0 0.0
2017-Sep-20 16:30N 37°08' W 008°32'1 1.8
2017-Sep-20 16:00N 37°07' W 008°32'1 1.9
2017-Sep-20 15:30N 37°08' W 008°32'0 0.2
2017-Sep-20 15:00N 37°08' W 008°32'0 0.0
2017-Sep-20 14:00N 37°08' W 008°32'0 0.0
2017-Sep-20 13:30N 37°08' W 008°32'0 0.0
2017-Sep-20 13:00N 37°08' W 008°32'0 0.0
2017-Sep-20 12:30N 37°08' W 008°32'0 0.0
2017-Sep-20 12:00N 37°08' W 008°32'0 0.0
2017-Sep-20 11:30N 37°08' W 008°32'0 0.0
2017-Sep-20 11:00N 37°08' W 008°32'0 0.0
2017-Sep-20 10:30N 37°08' W 008°32'0 0.0
2017-Sep-20 10:00N 37°08' W 008°32'0 0.0
2017-Sep-20 09:30N 37°08' W 008°32'0 0.0
2017-Sep-20 09:00N 37°08' W 008°32'0 0.0
2017-Sep-20 08:30N 37°08' W 008°32'0 0.0
2017-Sep-20 08:00N 37°08' W 008°32'0 0.2
2017-Sep-20 07:30N 37°08' W 008°32'2 3.9
2017-Sep-20 07:00N 37°06' W 008°32'1 1.1
2017-Sep-20 06:30N 37°06' W 008°32'1 2.6
2017-Sep-20 06:00N 37°08' W 008°32'0 0.0
2017-Sep-20 05:30N 37°08' W 008°32'0 0.0
2017-Sep-20 05:00N 37°08' W 008°32'0 0.0
2017-Sep-20 04:30N 37°08' W 008°32'0 0.0
2017-Sep-20 04:00N 37°08' W 008°32'0 0.0
2017-Sep-20 03:30N 37°08' W 008°32'0 0.0
2017-Sep-20 03:00N 37°08' W 008°32'0 0.0
2017-Sep-20 02:30N 37°08' W 008°32'0 0.0
2017-Sep-20 02:00N 37°08' W 008°32'0 0.0
2017-Sep-20 01:30N 37°08' W 008°32'3 7.0
2017-Sep-20 01:00N 37°04' W 008°33'510.7
2017-Sep-20 00:30N 37°01' W 008°38'510.8
2017-Sep-20 00:00N 36°58' W 008°44'510.9
2017-Sep-19 23:30N 36°55' W 008°49'810.5
2017-Sep-19 22:47N 36°50' W 008°56'310.4
2017-Sep-19 22:30N 36°50' W 008°60'25 9.6
2017-Sep-19 19:53N 37°13' W 009°11'511.4
2017-Sep-19 19:28N 37°18' W 009°10'511.2
2017-Sep-19 18:59N 37°23' W 009°09'510.9
2017-Sep-19 18:30N 37°29' W 009°08'611.1
2017-Sep-19 18:00N 37°34' W 009°08'611.1
2017-Sep-19 17:30N 37°40' W 009°07'611.2
2017-Sep-19 17:00N 37°45' W 009°06'611.2
2017-Sep-19 16:30N 37°51' W 009°05'611.2
2017-Sep-19 16:00N 37°56' W 009°04'611.1
2017-Sep-19 15:31N 38°02' W 009°03'611.1
2017-Sep-19 15:00N 38°07' W 009°02'611.1
2017-Sep-19 14:30N 38°13' W 009°01'611.0
2017-Sep-19 14:00N 38°18' W 009°00'510.8
2017-Sep-19 13:30N 38°24' W 008°59'5 9.7
2017-Sep-19 13:00N 38°28' W 008°57'4 8.2
2017-Sep-19 12:30N 38°31' W 008°53'3 5.2
2017-Sep-19 12:00N 38°30' W 008°50'0 0.0
2017-Sep-19 11:28N 38°30' W 008°50'0 0.0
2017-Sep-19 10:59N 38°30' W 008°50'0 0.0
2017-Sep-19 10:30N 38°30' W 008°50'0 0.0
2017-Sep-19 10:00N 38°30' W 008°50'0 0.0
2017-Sep-19 09:30N 38°30' W 008°50'0 0.0
2017-Sep-19 08:53N 38°30' W 008°50'0 0.0
2017-Sep-19 08:26N 38°30' W 008°50'0 0.0
2017-Sep-19 08:00N 38°30' W 008°50'0 0.0
2017-Sep-19 07:24N 38°30' W 008°50'0 0.0
2017-Sep-19 06:59N 38°30' W 008°50'0 0.0
2017-Sep-19 06:25N 38°30' W 008°50'0 0.0
2017-Sep-19 05:57N 38°30' W 008°50'0 0.0
2017-Sep-19 05:29N 38°30' W 008°50'0 0.0
2017-Sep-19 04:49N 38°30' W 008°50'0 0.0
2017-Sep-19 04:28N 38°30' W 008°50'0 0.0
2017-Sep-19 04:00N 38°30' W 008°50'0 0.0
2017-Sep-19 03:25N 38°30' W 008°50'0 0.0
2017-Sep-19 02:57N 38°30' W 008°50'0 0.0
2017-Sep-19 02:30N 38°30' W 008°50'0 0.0
2017-Sep-19 02:00N 38°30' W 008°50'0 0.0
2017-Sep-19 01:20N 38°30' W 008°50'0 0.0
2017-Sep-19 00:58N 38°30' W 008°50'0 0.0
2017-Sep-19 00:30N 38°30' W 008°50'0 0.0
2017-Sep-18 23:54N 38°30' W 008°50'0 0.0
2017-Sep-18 23:30N 38°30' W 008°50'0 0.0
2017-Sep-18 23:00N 38°30' W 008°50'0 0.0
2017-Sep-18 22:26N 38°30' W 008°50'0 0.0
2017-Sep-18 22:00N 38°30' W 008°50'0 0.0
2017-Sep-18 21:30N 38°30' W 008°50'0 0.0
2017-Sep-18 21:00N 38°30' W 008°50'0 0.0
2017-Sep-18 20:29N 38°30' W 008°50'0 0.0
2017-Sep-18 20:00N 38°30' W 008°50'0 0.0
2017-Sep-18 19:30N 38°30' W 008°50'0 0.0
2017-Sep-18 19:00N 38°30' W 008°50'0 0.0
2017-Sep-18 18:30N 38°30' W 008°50'0 0.0
2017-Sep-18 18:00N 38°30' W 008°50'0 0.0
2017-Sep-18 17:30N 38°30' W 008°50'0 0.0
2017-Sep-18 17:00N 38°30' W 008°50'0 0.0
2017-Sep-18 16:30N 38°30' W 008°50'0 0.0
2017-Sep-18 16:00N 38°30' W 008°50'0 0.0
2017-Sep-18 15:30N 38°30' W 008°50'0 0.0
2017-Sep-18 15:00N 38°30' W 008°50'0 0.0
2017-Sep-18 14:30N 38°30' W 008°50'0 0.0
2017-Sep-18 14:00N 38°30' W 008°50'0 0.0
2017-Sep-18 13:30N 38°30' W 008°50'0 0.0
2017-Sep-18 12:59N 38°30' W 008°50'0 0.0
2017-Sep-18 12:21N 38°30' W 008°50'0 0.0
2017-Sep-18 11:57N 38°30' W 008°50'0 0.0
2017-Sep-18 11:28N 38°30' W 008°50'0 0.0
2017-Sep-18 11:00N 38°30' W 008°50'0 0.0
2017-Sep-18 10:26N 38°30' W 008°50'0 0.0
2017-Sep-18 09:59N 38°30' W 008°50'0 0.0
2017-Sep-18 08:28N 38°30' W 008°50'0 0.0
2017-Sep-18 08:00N 38°30' W 008°50'0 0.0
2017-Sep-18 07:24N 38°30' W 008°50'0 0.0
2017-Sep-18 07:00N 38°30' W 008°50'0 0.8
2017-Sep-18 06:29N 38°30' W 008°51'0 0.3
2017-Sep-18 06:00N 38°30' W 008°51'3 5.7
2017-Sep-18 05:27N 38°30' W 008°55'1 1.2
2017-Sep-18 04:58N 38°31' W 008°54'2 4.9
2017-Sep-18 04:30N 38°30' W 008°51'1 2.1
2017-Sep-18 03:56N 38°30' W 008°50'0 0.0
2017-Sep-18 03:27N 38°30' W 008°50'0 0.0
2017-Sep-18 02:59N 38°30' W 008°50'0 0.0
2017-Sep-18 02:27N 38°30' W 008°50'0 0.0
2017-Sep-18 02:00N 38°30' W 008°50'0 0.0
2017-Sep-18 01:30N 38°30' W 008°50'0 0.0
2017-Sep-18 01:00N 38°30' W 008°50'0 0.0
2017-Sep-18 00:30N 38°30' W 008°50'0 0.0
2017-Sep-18 00:00N 38°30' W 008°50'0 0.0
2017-Sep-17 23:29N 38°30' W 008°50'0 0.0
2017-Sep-17 23:00N 38°30' W 008°50'0 0.0
2017-Sep-17 22:30N 38°30' W 008°50'0 0.0
2017-Sep-17 22:00N 38°30' W 008°50'0 0.0
2017-Sep-17 21:30N 38°30' W 008°50'0 0.0
2017-Sep-17 21:00N 38°30' W 008°50'0 0.0
2017-Sep-17 20:30N 38°30' W 008°50'0 0.0
2017-Sep-17 20:00N 38°30' W 008°50'0 0.0
2017-Sep-17 19:30N 38°30' W 008°50'2 3.3
2017-Sep-17 19:01N 38°31' W 008°52'2 3.2
2017-Sep-17 18:30N 38°30' W 008°50'0 0.0
2017-Sep-17 18:00N 38°30' W 008°50'0 0.0
2017-Sep-17 17:30N 38°30' W 008°50'0 0.0
2017-Sep-17 17:00N 38°30' W 008°50'0 0.0
2017-Sep-17 16:30N 38°30' W 008°50'0 0.0
2017-Sep-17 16:00N 38°30' W 008°50'0 0.0
2017-Sep-17 15:30N 38°30' W 008°50'0 0.0
2017-Sep-17 15:00N 38°30' W 008°50'0 0.0
2017-Sep-17 14:30N 38°30' W 008°50'0 0.0
2017-Sep-17 14:00N 38°30' W 008°50'0 0.0
2017-Sep-17 13:30N 38°30' W 008°50'0 0.0
2017-Sep-17 13:00N 38°30' W 008°50'0 0.0
2017-Sep-17 12:30N 38°30' W 008°50'0 0.0
2017-Sep-17 12:00N 38°30' W 008°50'0 0.0
2017-Sep-17 11:30N 38°30' W 008°50'0 0.0
2017-Sep-17 11:00N 38°30' W 008°50'0 0.0
2017-Sep-17 10:30N 38°30' W 008°50'0 0.0
2017-Sep-17 09:59N 38°30' W 008°50'0 0.0
2017-Sep-17 09:30N 38°30' W 008°50'0 0.0
2017-Sep-17 08:49N 38°30' W 008°50'0 0.0
2017-Sep-17 08:30N 38°30' W 008°50'0 0.0
2017-Sep-17 07:46N 38°30' W 008°50'0 0.0
2017-Sep-17 07:28N 38°30' W 008°50'0 0.0
2017-Sep-17 07:00N 38°30' W 008°50'0 0.0
2017-Sep-17 06:28N 38°30' W 008°50'1 2.1
2017-Sep-17 05:55N 38°30' W 008°51'0 0.9
2017-Sep-17 05:30N 38°31' W 008°52'1 2.6
2017-Sep-17 05:00N 38°31' W 008°53'1 2.6
2017-Sep-17 04:30N 38°30' W 008°55'2 3.4
2017-Sep-17 03:59N 38°31' W 008°53'2 4.7
2017-Sep-17 03:30N 38°30' W 008°50'0 0.0
2017-Sep-17 02:50N 38°30' W 008°50'0 0.0
2017-Sep-17 02:27N 38°30' W 008°50'0 0.0
2017-Sep-17 01:59N 38°30' W 008°50'0 0.0
2017-Sep-17 01:14N 38°30' W 008°50'0 0.0
2017-Sep-17 00:58N 38°30' W 008°50'0 0.0
2017-Sep-17 00:30N 38°30' W 008°50'0 0.0
2017-Sep-16 23:59N 38°30' W 008°50'0 0.0
2017-Sep-16 23:30N 38°30' W 008°50'0 0.0
2017-Sep-16 22:48N 38°30' W 008°50'0 0.0
2017-Sep-16 22:25N 38°30' W 008°50'0 0.0
2017-Sep-16 21:57N 38°30' W 008°50'0 0.0
2017-Sep-16 21:30N 38°30' W 008°50'0 0.0
2017-Sep-16 21:00N 38°30' W 008°50'0 0.0
2017-Sep-16 20:25N 38°30' W 008°50'0 0.0
2017-Sep-16 20:00N 38°30' W 008°50'0 0.0
2017-Sep-16 19:29N 38°30' W 008°50'0 0.0
2017-Sep-16 19:00N 38°30' W 008°50'0 0.0
2017-Sep-16 18:30N 38°30' W 008°50'0 0.0
2017-Sep-16 18:00N 38°30' W 008°50'0 0.0
2017-Sep-16 17:28N 38°30' W 008°50'0 0.0
2017-Sep-16 16:58N 38°30' W 008°50'0 0.0
2017-Sep-16 16:30N 38°30' W 008°50'2 3.4
2017-Sep-16 16:00N 38°31' W 008°52'1 1.6
2017-Sep-16 15:30N 38°31' W 008°53'0 0.7
2017-Sep-16 15:00N 38°31' W 008°53'1 2.8
2017-Sep-16 14:29N 38°30' W 008°55'1 3.0
2017-Sep-16 14:00N 38°31' W 008°53'3 5.4
2017-Sep-16 13:30N 38°30' W 008°50'0 0.0
2017-Sep-16 13:00N 38°30' W 008°50'0 0.0
2017-Sep-16 12:29N 38°30' W 008°50'0 0.0
2017-Sep-16 11:59N 38°30' W 008°50'0 0.0
2017-Sep-16 11:30N 38°30' W 008°50'0 0.0
2017-Sep-16 10:58N 38°30' W 008°50'0 0.0
2017-Sep-16 10:30N 38°30' W 008°50'0 0.0
2017-Sep-16 10:00N 38°30' W 008°50'0 0.0
2017-Sep-16 09:29N 38°30' W 008°50'0 0.0
2017-Sep-16 08:59N 38°30' W 008°50'0 0.0
2017-Sep-16 08:28N 38°30' W 008°50'0 0.0
2017-Sep-16 07:57N 38°30' W 008°50'0 0.0
2017-Sep-16 07:29N 38°30' W 008°50'0 0.0
2017-Sep-16 07:00N 38°30' W 008°50'0 0.0
2017-Sep-16 06:30N 38°30' W 008°50'0 0.0
2017-Sep-16 06:00N 38°30' W 008°50'0 0.0
2017-Sep-16 05:30N 38°30' W 008°50'0 0.0
2017-Sep-16 04:58N 38°30' W 008°50'0 0.0
2017-Sep-16 04:27N 38°30' W 008°50'0 0.0
2017-Sep-16 03:50N 38°30' W 008°50'0 0.0
2017-Sep-16 03:17N 38°30' W 008°50'0 0.0
2017-Sep-16 02:53N 38°30' W 008°50'0 0.0
2017-Sep-16 02:29N 38°30' W 008°50'0 0.0
2017-Sep-16 01:52N 38°30' W 008°50'0 0.0
2017-Sep-16 01:19N 38°30' W 008°50'0 0.0
2017-Sep-16 00:53N 38°30' W 008°50'0 0.0
2017-Sep-16 00:28N 38°30' W 008°50'0 0.0
2017-Sep-15 23:58N 38°30' W 008°50'0 0.0
2017-Sep-15 23:24N 38°30' W 008°50'0 0.0
2017-Sep-15 22:38N 38°30' W 008°50'0 0.1
2017-Sep-15 22:29N 38°30' W 008°50'0 0.0
2017-Sep-15 21:57N 38°30' W 008°50'0 0.0
2017-Sep-15 20:44N 38°30' W 008°50'0 0.0
2017-Sep-15 20:23N 38°30' W 008°50'0 0.0
2017-Sep-15 19:59N 38°30' W 008°50'0 0.0
2017-Sep-15 19:28N 38°30' W 008°50'0 0.0
2017-Sep-15 18:59N 38°30' W 008°50'0 0.0
2017-Sep-15 18:26N 38°30' W 008°50'0 0.0
2017-Sep-15 18:00N 38°30' W 008°50'0 0.0
2017-Sep-15 17:27N 38°30' W 008°50'0 0.0
2017-Sep-15 16:58N 38°30' W 008°50'0 0.0
2017-Sep-15 16:30N 38°30' W 008°50'0 0.0
2017-Sep-15 15:57N 38°30' W 008°50'0 0.0
2017-Sep-15 15:05N 38°30' W 008°50'0 0.0
2017-Sep-15 14:59N 38°30' W 008°50'0 0.0
2017-Sep-15 14:30N 38°30' W 008°50'0 0.0
2017-Sep-15 13:58N 38°30' W 008°50'0 0.0
2017-Sep-15 13:30N 38°30' W 008°50'0 0.0
2017-Sep-15 12:56N 38°30' W 008°50'0 0.0
2017-Sep-15 12:20N 38°30' W 008°50'0 0.0
2017-Sep-15 11:52N 38°30' W 008°50'0 0.0
2017-Sep-15 11:28N 38°30' W 008°50'0 0.0
2017-Sep-15 10:50N 38°30' W 008°50'1 3.1
2017-Sep-15 10:25N 38°30' W 008°52'1 3.1
2017-Sep-15 10:00N 38°31' W 008°53'1 2.7
2017-Sep-15 09:30N 38°31' W 008°55'1 2.5
2017-Sep-15 09:00N 38°31' W 008°53'2 4.9
2017-Sep-15 08:30N 38°30' W 008°50'0 0.0
2017-Sep-15 07:48N 38°30' W 008°50'0 0.0
2017-Sep-15 07:29N 38°30' W 008°50'0 0.0
2017-Sep-15 06:59N 38°30' W 008°50'0 0.0
2017-Sep-15 06:28N 38°30' W 008°50'0 0.0
2017-Sep-15 05:56N 38°30' W 008°50'0 0.0
2017-Sep-15 05:29N 38°30' W 008°50'0 0.0
2017-Sep-15 04:36N 38°30' W 008°50'0 0.0
2017-Sep-15 04:30N 38°30' W 008°50'0 0.0
2017-Sep-15 03:58N 38°30' W 008°50'0 0.0
2017-Sep-15 03:28N 38°30' W 008°50'0 0.0
2017-Sep-15 02:57N 38°30' W 008°50'0 0.0
2017-Sep-15 02:25N 38°30' W 008°50'0 0.0
2017-Sep-15 02:00N 38°30' W 008°50'0 0.0
2017-Sep-15 01:30N 38°30' W 008°50'0 0.0
2017-Sep-15 00:56N 38°30' W 008°50'0 0.0
2017-Sep-15 00:26N 38°30' W 008°50'0 0.0
2017-Sep-14 23:59N 38°30' W 008°50'0 0.0
2017-Sep-14 23:11N 38°30' W 008°50'0 0.0
2017-Sep-14 22:50N 38°30' W 008°50'0 0.0
2017-Sep-14 22:30N 38°30' W 008°50'0 0.0
2017-Sep-14 21:57N 38°30' W 008°50'0 0.0
2017-Sep-14 21:28N 38°30' W 008°50'0 0.0
2017-Sep-14 20:59N 38°30' W 008°50'0 0.0
2017-Sep-14 20:18N 38°30' W 008°50'0 0.0
2017-Sep-14 20:00N 38°30' W 008°50'0 0.0
2017-Sep-14 19:30N 38°30' W 008°50'0 0.0
2017-Sep-14 19:00N 38°30' W 008°50'0 0.0
2017-Sep-14 18:30N 38°30' W 008°50'0 0.0
2017-Sep-14 17:56N 38°30' W 008°50'0 0.0
2017-Sep-14 17:30N 38°30' W 008°50'0 0.0
2017-Sep-14 17:00N 38°30' W 008°50'0 0.0
2017-Sep-14 16:30N 38°30' W 008°50'0 0.0
2017-Sep-14 16:00N 38°30' W 008°50'0 0.0
2017-Sep-14 15:30N 38°30' W 008°50'0 0.0
2017-Sep-14 15:00N 38°30' W 008°50'0 0.0
2017-Sep-14 14:30N 38°30' W 008°50'0 0.0
2017-Sep-14 14:00N 38°30' W 008°50'0 0.0
2017-Sep-14 13:27N 38°30' W 008°50'0 0.0
2017-Sep-14 13:00N 38°30' W 008°50'0 0.0
2017-Sep-14 12:23N 38°30' W 008°50'0 0.0
2017-Sep-14 11:59N 38°30' W 008°50'0 0.0
2017-Sep-14 11:28N 38°30' W 008°50'0 0.1
2017-Sep-14 11:00N 38°30' W 008°50'0 0.2
2017-Sep-14 10:26N 38°30' W 008°50'0 0.0
2017-Sep-14 09:58N 38°30' W 008°50'0 0.0
2017-Sep-14 09:30N 38°30' W 008°50'0 0.0
2017-Sep-14 08:52N 38°30' W 008°50'0 0.2
2017-Sep-14 08:26N 38°30' W 008°50'0 0.0
2017-Sep-14 08:00N 38°30' W 008°50'0 0.0
2017-Sep-14 07:23N 38°30' W 008°50'0 0.0
2017-Sep-14 06:59N 38°30' W 008°50'0 0.0
2017-Sep-14 06:30N 38°30' W 008°50'0 0.0
2017-Sep-14 05:58N 38°30' W 008°50'0 0.0
2017-Sep-14 05:30N 38°30' W 008°50'0 0.0
2017-Sep-14 04:40N 38°30' W 008°50'0 0.0
2017-Sep-14 04:30N 38°30' W 008°50'0 0.0
2017-Sep-14 03:22N 38°30' W 008°50'0 0.0
2017-Sep-14 02:59N 38°30' W 008°50'0 0.0
2017-Sep-14 02:26N 38°30' W 008°50'0 0.0
2017-Sep-14 01:55N 38°30' W 008°50'0 0.0
2017-Sep-14 01:30N 38°30' W 008°50'0 0.0
2017-Sep-14 00:59N 38°30' W 008°50'0 0.0
2017-Sep-14 00:29N 38°30' W 008°50'0 0.0
2017-Sep-13 23:51N 38°30' W 008°50'0 0.0
2017-Sep-13 23:30N 38°30' W 008°50'0 0.0
2017-Sep-13 22:59N 38°30' W 008°50'0 0.0
2017-Sep-13 22:27N 38°30' W 008°50'0 0.0
2017-Sep-13 21:58N 38°30' W 008°50'0 0.0
2017-Sep-13 21:24N 38°30' W 008°50'0 0.0
2017-Sep-13 20:58N 38°30' W 008°50'0 0.0
2017-Sep-13 20:30N 38°30' W 008°50'0 0.0
2017-Sep-13 19:56N 38°30' W 008°50'0 0.0
2017-Sep-13 19:30N 38°30' W 008°50'0 0.0
2017-Sep-13 18:59N 38°30' W 008°50'0 0.0
2017-Sep-13 18:30N 38°30' W 008°50'0 0.0
2017-Sep-13 18:00N 38°30' W 008°50'0 0.0
2017-Sep-13 17:30N 38°30' W 008°50'0 0.0
2017-Sep-13 17:00N 38°30' W 008°50'0 0.0
2017-Sep-13 16:30N 38°30' W 008°50'0 0.0
2017-Sep-13 16:00N 38°30' W 008°50'0 0.0
2017-Sep-13 15:30N 38°30' W 008°50'0 0.0
2017-Sep-13 15:00N 38°30' W 008°50'0 0.0
2017-Sep-13 14:30N 38°30' W 008°50'0 0.0
2017-Sep-13 14:00N 38°30' W 008°50'0 0.0
2017-Sep-13 13:30N 38°30' W 008°50'0 0.0
2017-Sep-13 13:00N 38°30' W 008°50'0 0.0
2017-Sep-13 12:30N 38°30' W 008°50'0 0.0
2017-Sep-13 12:00N 38°30' W 008°50'0 0.0
2017-Sep-13 11:28N 38°30' W 008°50'0 0.0
2017-Sep-13 10:59N 38°30' W 008°50'0 0.0
2017-Sep-13 10:30N 38°30' W 008°50'0 0.0
2017-Sep-13 10:00N 38°30' W 008°50'0 0.0
2017-Sep-13 09:30N 38°30' W 008°50'0 0.0
2017-Sep-13 08:59N 38°30' W 008°50'0 0.0
2017-Sep-13 08:21N 38°30' W 008°50'0 0.0
2017-Sep-13 07:58N 38°30' W 008°50'0 0.0
2017-Sep-13 07:23N 38°30' W 008°50'0 0.0
2017-Sep-13 06:56N 38°30' W 008°50'0 0.0
2017-Sep-13 06:30N 38°30' W 008°50'0 0.0
2017-Sep-13 05:59N 38°30' W 008°50'0 0.0
2017-Sep-13 05:28N 38°30' W 008°50'0 0.0
2017-Sep-13 05:00N 38°30' W 008°50'0 0.0
2017-Sep-13 04:27N 38°30' W 008°50'0 0.0
2017-Sep-13 03:52N 38°30' W 008°50'0 0.0
2017-Sep-13 03:30N 38°30' W 008°50'0 0.0
2017-Sep-13 02:59N 38°30' W 008°50'0 0.0
2017-Sep-13 02:30N 38°30' W 008°50'0 0.0
2017-Sep-13 01:53N 38°30' W 008°50'0 0.0
2017-Sep-13 01:30N 38°30' W 008°50'0 0.0
2017-Sep-13 01:00N 38°30' W 008°50'0 0.0
2017-Sep-13 00:26N 38°30' W 008°50'0 0.0
2017-Sep-12 23:56N 38°30' W 008°50'0 0.0
2017-Sep-12 23:25N 38°30' W 008°50'0 0.0
2017-Sep-12 23:00N 38°30' W 008°50'0 0.0
2017-Sep-12 22:30N 38°30' W 008°50'0 0.0
2017-Sep-12 21:59N 38°30' W 008°50'0 0.0
2017-Sep-12 21:29N 38°30' W 008°50'0 0.0
2017-Sep-12 21:00N 38°30' W 008°50'0 0.0
2017-Sep-12 20:28N 38°30' W 008°50'0 0.0
2017-Sep-12 20:00N 38°30' W 008°50'0 0.0
2017-Sep-12 19:29N 38°30' W 008°50'0 0.0
2017-Sep-12 18:59N 38°30' W 008°50'0 0.0
2017-Sep-12 18:30N 38°30' W 008°50'0 0.0
2017-Sep-12 18:00N 38°30' W 008°50'0 0.0
2017-Sep-12 17:30N 38°30' W 008°50'0 0.0
2017-Sep-12 17:00N 38°30' W 008°50'0 0.0
2017-Sep-12 16:30N 38°30' W 008°50'0 0.0
2017-Sep-12 16:00N 38°30' W 008°50'0 0.0
2017-Sep-12 15:30N 38°30' W 008°50'0 0.0
2017-Sep-12 15:00N 38°30' W 008°50'0 0.0
2017-Sep-12 14:30N 38°30' W 008°50'0 0.0
2017-Sep-12 13:59N 38°30' W 008°50'0 0.0
2017-Sep-12 13:30N 38°30' W 008°50'0 0.0
2017-Sep-12 13:00N 38°30' W 008°50'0 0.0
2017-Sep-12 12:28N 38°30' W 008°50'0 0.0
2017-Sep-12 12:00N 38°30' W 008°50'0 0.0
2017-Sep-12 11:30N 38°30' W 008°50'0 0.0
2017-Sep-12 11:00N 38°30' W 008°50'0 0.0
2017-Sep-12 10:27N 38°30' W 008°50'0 0.0
2017-Sep-12 09:57N 38°30' W 008°50'0 0.0
2017-Sep-12 09:23N 38°30' W 008°50'0 0.0
2017-Sep-12 08:53N 38°30' W 008°50'0 0.0
2017-Sep-12 08:27N 38°30' W 008°50'0 0.0
2017-Sep-12 08:00N 38°30' W 008°50'0 0.0
2017-Sep-12 07:30N 38°30' W 008°50'0 0.0
2017-Sep-12 07:00N 38°30' W 008°50'0 0.0
2017-Sep-12 06:28N 38°30' W 008°50'0 0.0
2017-Sep-12 06:00N 38°30' W 008°50'0 0.0
2017-Sep-12 05:25N 38°30' W 008°50'0 0.0
2017-Sep-12 04:58N 38°30' W 008°50'0 0.0
2017-Sep-12 04:28N 38°30' W 008°50'0 0.0
2017-Sep-12 03:59N 38°30' W 008°50'0 0.0
2017-Sep-12 03:30N 38°30' W 008°50'0 0.0
2017-Sep-12 03:00N 38°30' W 008°50'0 0.0
2017-Sep-12 02:30N 38°30' W 008°50'0 0.0
2017-Sep-12 02:00N 38°30' W 008°50'0 0.0
2017-Sep-12 01:30N 38°30' W 008°50'0 0.0
2017-Sep-12 01:00N 38°30' W 008°50'0 0.0
2017-Sep-12 00:30N 38°30' W 008°50'0 0.0
2017-Sep-11 23:58N 38°30' W 008°50'0 0.0
2017-Sep-11 23:30N 38°30' W 008°50'0 0.0
2017-Sep-11 23:00N 38°30' W 008°50'0 0.0
2017-Sep-11 22:30N 38°30' W 008°50'0 0.0
2017-Sep-11 22:00N 38°30' W 008°50'0 0.0
2017-Sep-11 21:21N 38°30' W 008°50'0 0.0
2017-Sep-11 21:00N 38°30' W 008°50'0 0.0
2017-Sep-11 20:30N 38°30' W 008°50'0 0.0
2017-Sep-11 19:59N 38°30' W 008°50'0 0.0
2017-Sep-11 19:30N 38°30' W 008°50'0 0.0
2017-Sep-11 18:52N 38°30' W 008°50'0 0.0
2017-Sep-11 18:27N 38°30' W 008°50'0 0.0
2017-Sep-11 17:52N 38°30' W 008°50'0 0.0
2017-Sep-11 17:29N 38°30' W 008°50'0 0.0
2017-Sep-11 16:54N 38°30' W 008°50'0 0.0
2017-Sep-11 16:30N 38°30' W 008°50'0 0.0
2017-Sep-11 16:00N 38°30' W 008°50'0 0.0
2017-Sep-11 15:30N 38°30' W 008°50'0 0.0
2017-Sep-11 15:00N 38°30' W 008°50'0 0.0
2017-Sep-11 14:30N 38°30' W 008°50'0 0.0
2017-Sep-11 14:00N 38°30' W 008°50'0 0.0
2017-Sep-11 13:30N 38°30' W 008°50'0 0.0
2017-Sep-11 13:00N 38°30' W 008°50'0 0.0
2017-Sep-11 12:27N 38°30' W 008°50'0 0.0
2017-Sep-11 12:00N 38°30' W 008°50'0 0.0
2017-Sep-11 11:30N 38°30' W 008°50'0 0.0
2017-Sep-11 10:59N 38°30' W 008°50'0 0.0
2017-Sep-11 10:30N 38°30' W 008°50'0 0.0
2017-Sep-11 09:59N 38°30' W 008°50'0 0.0
2017-Sep-11 09:29N 38°30' W 008°50'  

Dump ship's entire track history